Time;durP1;ratioP1;P1;durP2;ratioP2;P2;SDS_P1;SDS_P2;PMS_P1;PMS_P2;Temp;Humidity;BMP_temperature;BMP_pressure;BME280_temperature;BME280_humidity;BME280_pressure;Samples;Min_cycle;Max_cycle;Signal;HPM_P1;HPM_P2
2022/06/29 00:00:21;;;;;;;6.93;3.50;;;;;;;-143.84;58.99;45024.31;5092741;28;20440;-74
2022/06/29 00:02:49;;;;;;;4.93;3.53;;;;;;;-143.84;58.42;45033.84;5092800;28;20432;-74
2022/06/29 00:05:20;;;;;;;6.50;3.70;;;;;;;-143.84;57.62;45020.50;5092721;28;20458;-74
2022/06/29 00:07:48;;;;;;;10.87;3.00;;;;;;;-143.84;56.55;45020.50;5092412;28;20479;-74
2022/06/29 00:10:16;;;;;;;7.27;3.37;;;;;;;-143.84;56.14;45047.16;5092440;28;20497;-74
2022/06/29 00:12:47;;;;;;;11.13;3.30;;;;;;;-143.84;55.79;45052.88;5092735;28;20528;-74
2022/06/29 00:15:15;;;;;;;18.80;2.67;;;;;;;-143.84;55.66;45031.94;5092181;28;20929;-74
2022/06/29 00:17:42;;;;;;;4.13;2.23;;;;;;;-143.84;55.36;45005.28;5092464;28;20432;-74
2022/06/29 00:20:12;;;;;;;13.33;2.80;;;;;;;-143.84;55.03;44990.03;5092592;28;20997;-74
2022/06/29 00:22:40;;;;;;;6.67;2.40;;;;;;;-143.84;54.70;45003.38;5092088;28;20448;-74
2022/06/29 00:25:09;;;;;;;4.43;3.00;;;;;;;-143.84;54.48;45001.47;5092441;28;20471;-76
2022/06/29 00:27:37;;;;;;;8.80;3.00;;;;;;;-143.84;53.94;45012.88;5092578;28;20541;-75
2022/06/29 00:30:07;;;;;;;10.17;2.43;;;;;;;-143.84;53.91;45041.44;5092935;28;20494;-76
2022/06/29 00:32:34;;;;;;;3.97;2.43;;;;;;;-143.84;53.88;45012.88;5093045;28;20428;-75
2022/06/29 00:35:02;;;;;;;7.57;2.77;;;;;;;-143.84;54.00;45039.53;5092848;28;20843;-75
2022/06/29 00:37:30;;;;;;;7.47;3.40;;;;;;;-143.84;54.12;45030.03;5092735;28;20472;-75
2022/06/29 00:39:57;;;;;;;5.53;2.57;;;;;;;-143.84;54.11;45031.94;5092953;28;20497;-76
2022/06/29 00:42:24;;;;;;;10.43;2.57;;;;;;;-143.84;53.66;45016.69;5093218;28;20444;-76
2022/06/29 00:44:51;;;;;;;13.60;3.07;;;;;;;-143.84;52.81;45026.22;5092822;28;20500;-76
2022/06/29 00:47:22;;;;;;;3.50;2.20;;;;;;;-143.84;52.43;45018.59;5093069;28;20491;-76
2022/06/29 00:49:49;;;;;;;8.30;2.60;;;;;;;-143.84;51.95;44999.56;5092184;28;20444;-74
2022/06/29 00:52:19;;;;;;;13.93;3.10;;;;;;;-143.84;52.50;45010.97;5091299;28;20444;-74
2022/06/29 00:54:48;;;;;;;7.60;2.63;;;;;;;-143.84;52.60;45037.66;5091460;28;20941;-74
2022/06/29 00:57:17;;;;;;;6.00;2.37;;;;;;;-143.84;52.55;45020.50;5091384;28;20483;-74
2022/06/29 00:59:47;;;;;;;6.63;3.07;;;;;;;-143.84;52.98;45045.25;5091500;28;20949;-74
2022/06/29 01:02:16;;;;;;;4.80;2.80;;;;;;;-143.84;53.81;45026.22;5091497;28;20566;-74
2022/06/29 01:04:45;;;;;;;7.83;3.70;;;;;;;-143.84;53.49;44999.56;5090872;28;20537;-74
2022/06/29 01:07:14;;;;;;;4.30;2.80;;;;;;;-143.84;54.12;45020.50;5091225;28;20472;-74
2022/06/29 01:09:42;;;;;;;3.63;2.83;;;;;;;-143.84;54.12;45005.28;5091304;28;20440;-74
2022/06/29 01:12:10;;;;;;;5.73;3.30;;;;;;;-143.84;54.57;45016.69;5091680;28;20463;-80
2022/06/29 01:14:37;;;;;;;9.73;3.17;;;;;;;-143.84;54.31;45030.03;5093475;28;20432;-80
2022/06/29 01:17:05;;;;;;;15.83;3.17;;;;;;;-143.84;53.90;45014.78;5093049;28;20436;-79
2022/06/29 01:19:32;;;;;;;8.50;2.80;;;;;;;-143.84;53.75;45030.03;5094024;28;20435;-80
2022/06/29 01:22:07;;;;;;;5.43;2.87;;;;;;;-143.84;54.28;45026.22;5093789;28;20918;-80
2022/06/29 01:24:34;;;;;;;10.33;2.90;;;;;;;-143.84;54.06;45024.31;5093188;28;20878;-80
2022/06/29 01:27:01;;;;;;;6.53;2.73;;;;;;;-143.84;53.95;45026.22;5093520;28;20475;-80
2022/06/29 01:29:30;;;;;;;7.00;3.20;;;;;;;-143.84;53.38;45016.69;5093474;28;20424;-81
2022/06/29 01:31:58;;;;;;;7.23;2.60;;;;;;;-143.84;53.51;45020.50;5093090;28;20436;-80
2022/06/29 01:34:26;;;;;;;4.70;3.10;;;;;;;-143.84;52.96;45020.50;5093129;28;20934;-80
2022/06/29 01:36:54;;;;;;;5.30;3.20;;;;;;;-143.84;53.49;45037.66;5093335;28;20509;-80
2022/06/29 01:39:22;;;;;;;8.43;2.50;;;;;;;-143.84;53.32;45016.69;5092903;28;20436;-80
2022/06/29 01:41:50;;;;;;;6.90;2.37;;;;;;;-143.84;53.12;45009.09;5093361;28;20521;-79
2022/06/29 01:44:17;;;;;;;9.63;2.60;;;;;;;-143.84;52.94;45007.19;5093015;28;20440;-79
2022/06/29 01:46:44;;;;;;;10.30;2.43;;;;;;;-143.84;53.05;45028.13;5093050;28;21026;-79
2022/06/29 01:49:11;;;;;;;6.20;2.40;;;;;;;-143.84;53.17;45030.03;5093227;28;20853;-80
2022/06/29 01:51:39;;;;;;;6.63;2.73;;;;;;;-143.84;52.98;45018.59;5092396;28;20432;-80
2022/06/29 01:54:06;;;;;;;9.37;2.57;;;;;;;-143.84;52.59;45022.41;5093164;28;20921;-80
2022/06/29 01:56:35;;;;;;;14.77;2.50;;;;;;;-143.84;52.13;45010.97;5092633;28;20497;-80
2022/06/29 01:59:03;;;;;;;16.63;2.87;;;;;;;-143.84;52.05;45016.69;5092869;28;20448;-80
2022/06/29 02:01:30;;;;;;;4.37;2.43;;;;;;;-143.84;51.41;44997.66;5092906;28;20439;-80
2022/06/29 02:03:57;;;;;;;6.83;2.53;;;;;;;-143.84;51.44;45028.13;5092827;28;20439;-80
2022/06/29 02:06:25;;;;;;;4.47;2.43;;;;;;;-143.84;51.39;45022.41;5092690;28;20440;-80
2022/06/29 02:08:53;;;;;;;4.23;2.20;;;;;;;-143.84;51.27;45037.66;5091487;28;20480;-80
2022/06/29 02:11:21;;;;;;;5.80;2.17;;;;;;;-143.84;51.03;45037.66;5088631;28;20934;-80
2022/06/29 02:13:49;;;;;;;6.70;2.23;;;;;;;-143.84;51.02;45024.31;5088445;28;20808;-80
2022/06/29 02:16:17;;;;;;;9.33;2.73;;;;;;;-143.84;51.04;45007.19;5091817;28;20432;-80
2022/06/29 02:18:44;;;;;;;6.90;2.60;;;;;;;-143.84;51.10;45022.41;5091800;28;20436;-80
2022/06/29 02:21:12;;;;;;;6.20;2.70;;;;;;;-143.84;50.90;45010.97;5092095;28;20435;-79
2022/06/29 02:23:39;;;;;;;6.13;2.73;;;;;;;-143.84;50.76;45007.19;5091873;28;20443;-79
2022/06/29 02:26:07;;;;;;;3.43;2.23;;;;;;;-143.84;50.67;45012.88;5092543;28;20443;-77
2022/06/29 02:28:34;;;;;;;5.97;2.67;;;;;;;-143.84;50.70;45024.31;5091611;28;20502;-77
2022/06/29 02:36:32;;;;;;;5.40;2.40;;;;;;;-143.84;49.67;45018.59;5091771;28;20442;-78
2022/06/29 02:39:00;;;;;;;7.57;2.40;;;;;;;-143.84;49.74;45018.59;5091748;28;20428;-78
2022/06/29 02:41:27;;;;;;;6.57;3.10;;;;;;;-143.84;49.83;45020.50;5091144;28;20878;-78
2022/06/29 02:43:55;;;;;;;9.00;2.50;;;;;;;-143.84;49.77;45024.31;5090911;28;21323;-75
2022/06/29 02:46:24;;;;;;;10.20;3.20;;;;;;;-143.84;50.16;45022.41;5090724;28;20960;-76
2022/06/29 02:48:51;;;;;;;4.60;2.60;;;;;;;-143.84;49.85;45009.09;5086891;28;20483;-76
2022/06/29 02:51:18;;;;;;;7.43;2.67;;;;;;;-143.84;49.76;45071.91;5076884;28;20444;-77
2022/06/29 02:53:45;;;;;;;14.03;2.50;;;;;;;-143.84;49.82;44999.56;5071484;28;20440;-77
2022/06/29 02:56:12;;;;;;;2.63;2.43;;;;;;;-143.84;49.62;45016.69;5071522;28;20425;-77
2022/06/29 02:58:39;;;;;;;11.23;2.53;;;;;;;-143.84;49.37;45020.50;5070903;28;20856;-79
2022/06/29 03:01:06;;;;;;;6.93;2.57;;;;;;;-143.84;49.25;45012.88;5088450;28;21386;-76
2022/06/29 03:03:35;;;;;;;10.27;2.33;;;;;;;-143.84;49.62;45014.78;5090799;28;20501;-75
2022/06/29 03:06:02;;;;;;;7.63;2.17;;;;;;;-143.84;49.08;44993.84;5089996;28;20448;-75
2022/06/29 03:08:29;;;;;;;16.80;2.33;;;;;;;-143.84;49.01;45014.78;5090761;28;20532;-80
2022/06/29 03:10:57;;;;;;;4.60;2.30;;;;;;;-143.84;48.70;45009.09;5091418;28;20431;-83
2022/06/29 03:13:24;;;;;;;4.83;2.30;;;;;;;-143.84;48.71;45033.84;5091320;28;20447;-79
2022/06/29 03:15:52;;;;;;;6.77;1.97;;;;;;;-143.84;48.44;45024.31;5091017;28;20481;-80
2022/06/29 03:18:19;;;;;;;12.03;2.30;;;;;;;-143.84;48.32;45007.19;5091344;28;20848;-75
2022/06/29 03:20:48;;;;;;;6.27;2.63;;;;;;;-143.84;47.76;45033.84;5089767;28;20862;-74
2022/06/29 03:23:15;;;;;;;4.30;2.03;;;;;;;-143.84;47.40;45018.59;5089717;28;20493;-74
2022/06/29 03:25:42;;;;;;;12.37;2.40;;;;;;;-143.84;47.38;45003.38;5089471;28;20443;-74
2022/06/29 03:28:09;;;;;;;9.00;2.47;;;;;;;-143.84;47.17;45022.41;5090029;28;20540;-73
2022/06/29 03:30:37;;;;;;;3.63;2.17;;;;;;;-143.84;47.10;45007.19;5093291;28;20443;-74
2022/06/29 03:33:04;;;;;;;2.37;2.00;;;;;;;-143.84;46.82;45030.03;5093304;28;20444;-74
2022/06/29 03:35:31;;;;;;;6.30;2.00;;;;;;;-143.84;46.78;45024.31;5093212;28;20834;-74
2022/06/29 03:38:00;;;;;;;7.33;2.17;;;;;;;-143.84;46.64;44999.56;5092650;28;20432;-74
2022/06/29 03:40:27;;;;;;;14.00;2.83;;;;;;;-143.84;46.09;44999.56;5091884;28;20941;-74
2022/06/29 03:42:55;;;;;;;2.50;2.30;;;;;;;-143.84;44.55;45014.78;5091797;28;20435;-74
2022/06/29 03:45:23;;;;;;;9.57;2.43;;;;;;;-143.84;43.95;45005.28;5091586;28;20444;-74
2022/06/29 03:47:50;;;;;;;5.77;2.10;;;;;;;-143.84;43.07;45009.09;5091715;28;20566;-74
2022/06/29 03:50:18;;;;;;;3.90;2.03;;;;;;;-143.84;42.84;44991.94;5092054;28;20979;-75
2022/06/29 03:52:46;;;;;;;4.50;2.33;;;;;;;-143.84;41.65;45003.38;5091971;28;20501;-74
2022/06/29 03:55:14;;;;;;;9.23;2.40;;;;;;;-143.84;40.96;44988.13;5094805;28;20432;-79
2022/06/29 03:57:42;;;;;;;8.60;2.60;;;;;;;-143.84;40.41;44976.72;5094955;28;20487;-82
2022/06/29 04:00:11;;;;;;;5.40;2.10;;;;;;;-143.84;39.40;44969.09;5095203;28;20420;-79
2022/06/29 04:02:38;;;;;;;11.87;2.30;;;;;;;-143.84;38.81;44957.66;5095237;28;20859;-79
2022/06/29 04:05:06;;;;;;;14.73;2.77;;;;;;;-143.84;38.75;44972.91;5094125;28;20804;-79
2022/06/29 04:07:33;;;;;;;7.00;2.20;;;;;;;-143.84;38.46;44953.88;5094853;28;20443;-80
2022/06/29 04:10:01;;;;;;;9.47;2.67;;;;;;;-143.84;38.29;44951.97;5094546;28;20953;-79
2022/06/29 04:12:31;;;;;;;8.80;2.10;;;;;;;-143.84;37.59;44932.91;5095124;28;20459;-79
2022/06/29 04:14:59;;;;;;;2.93;2.10;;;;;;;-143.84;37.69;44921.50;5094792;28;20436;-79
2022/06/29 04:17:26;;;;;;;16.80;2.40;;;;;;;-143.84;37.35;44934.81;5095094;28;20431;-79
2022/06/29 04:19:54;;;;;;;10.03;1.73;;;;;;;-143.84;36.96;44953.88;5094117;28;20428;-79
2022/06/29 04:22:22;;;;;;;6.80;2.20;;;;;;;-143.84;36.58;44921.50;5095003;28;20444;-79
2022/06/29 04:24:49;;;;;;;10.87;2.30;;;;;;;-143.84;36.12;44932.91;5094750;28;20493;-79
2022/06/29 04:27:17;;;;;;;2.60;1.73;;;;;;;-143.84;35.98;44938.63;5094781;28;20432;-79
2022/06/29 04:29:46;;;;;;;5.40;2.03;;;;;;;-143.84;35.45;44946.25;5094434;28;20988;-79
2022/06/29 04:32:13;;;;;;;2.67;2.10;;;;;;;-143.84;35.28;44934.81;5094260;28;20432;-79
2022/06/29 04:34:40;;;;;;;9.27;2.97;;;;;;;-143.84;35.16;44942.44;5094660;28;20440;-80
2022/06/29 04:37:07;;;;;;;9.93;2.17;;;;;;;-143.84;35.22;44942.44;5093618;28;20444;-79
2022/06/29 04:39:35;;;;;;;8.73;2.30;;;;;;;-143.84;35.21;44910.06;5093674;28;20436;-79
2022/06/29 04:42:02;;;;;;;12.90;2.30;;;;;;;-143.84;34.98;44892.94;5093820;28;20428;-79
2022/06/29 04:44:29;;;;;;;5.70;2.07;;;;;;;-143.84;34.66;44913.88;5093565;28;20870;-78
2022/06/29 04:46:58;;;;;;;8.40;2.03;;;;;;;-143.84;34.44;44894.84;5094621;28;20925;-78
2022/06/29 04:49:26;;;;;;;7.43;2.00;;;;;;;-143.84;34.17;44906.25;5091978;28;21000;-79
2022/06/29 04:51:53;;;;;;;5.90;2.73;;;;;;;-143.84;34.04;44896.75;5092626;28;20439;-78
2022/06/29 04:54:20;;;;;;;8.20;2.27;;;;;;;-143.84;34.10;44904.34;5092626;28;20806;-79
2022/06/29 04:56:47;;;;;;;3.53;2.17;;;;;;;-143.84;33.99;44887.22;5087815;28;20475;-79
2022/06/29 04:59:15;;;;;;;5.93;2.30;;;;;;;-143.84;34.23;44917.69;5093217;28;20432;-78
2022/06/29 05:01:43;;;;;;;1.87;1.67;;;;;;;-143.84;34.28;44894.84;5093339;28;20439;-79
2022/06/29 05:04:12;;;;;;;6.57;2.10;;;;;;;-143.84;34.22;44887.22;5093515;28;20921;-79
2022/06/29 05:06:39;;;;;;;8.30;2.07;;;;;;;-143.84;34.14;44921.50;5093830;28;20443;-79
2022/06/29 05:09:06;;;;;;;3.87;2.23;;;;;;;-143.84;34.06;44904.34;5093575;28;20463;-79
2022/06/29 05:11:33;;;;;;;9.70;2.10;;;;;;;-143.84;33.83;44902.44;5093603;28;20452;-79
2022/06/29 05:14:01;;;;;;;9.30;1.97;;;;;;;-143.84;33.78;44877.69;5093501;28;20424;-79
2022/06/29 05:16:29;;;;;;;4.53;2.10;;;;;;;-143.84;33.31;44866.28;5093239;28;20442;-79
2022/06/29 05:18:56;;;;;;;9.97;1.73;;;;;;;-143.84;33.70;44866.28;5092778;28;20725;-75
2022/06/29 05:21:25;;;;;;;9.13;1.90;;;;;;;-143.84;33.41;44885.31;5091563;28;20440;-75
2022/06/29 05:23:52;;;;;;;8.03;1.83;;;;;;;-143.84;33.51;44860.56;5091455;28;20444;-75
2022/06/29 05:26:19;;;;;;;7.23;2.40;;;;;;;-143.84;33.48;44868.19;5091204;28;20475;-75
2022/06/29 05:28:47;;;;;;;3.10;2.20;;;;;;;-143.84;32.50;44849.13;5091094;28;20475;-74
2022/06/29 05:31:17;;;;;;;3.00;1.77;;;;;;;-143.84;32.85;44845.31;5091247;28;20437;-75
2022/06/29 05:33:44;;;;;;;14.13;2.00;;;;;;;-143.84;32.69;44864.38;5091261;28;20880;-75
2022/06/29 05:36:12;;;;;;;8.60;2.00;;;;;;;-143.84;32.19;44877.69;5091379;28;20955;-75
2022/06/29 05:38:41;;;;;;;8.47;2.03;;;;;;;-143.84;32.37;44839.63;5090646;28;20440;-75
2022/06/29 05:41:08;;;;;;;4.07;2.00;;;;;;;-143.84;32.38;44826.28;5090856;28;20570;-74
2022/06/29 05:43:35;;;;;;;10.93;2.27;;;;;;;-143.84;32.20;44837.72;5090568;28;20847;-75
2022/06/29 05:46:04;;;;;;;6.17;2.30;;;;;;;-143.84;31.90;44812.97;5090627;28;20428;-75
2022/06/29 05:48:31;;;;;;;6.70;1.90;;;;;;;-143.84;31.95;44837.72;5090552;28;20479;-75
2022/06/29 05:50:59;;;;;;;2.90;1.70;;;;;;;-143.84;31.72;44793.91;5089882;28;20444;-75
2022/06/29 05:53:26;;;;;;;2.93;1.53;;;;;;;-143.84;32.06;44837.72;5090630;28;20440;-75
2022/06/29 05:55:54;;;;;;;8.73;2.30;;;;;;;-143.84;32.21;44843.44;5090849;28;20439;-75
2022/06/29 05:58:23;;;;;;;4.33;1.77;;;;;;;-143.84;32.55;44812.97;5090482;28;20529;-75
2022/06/29 06:00:50;;;;;;;3.10;1.73;;;;;;;-143.84;32.09;44799.63;5090558;28;20475;-74
2022/06/29 06:03:18;;;;;;;11.10;2.23;;;;;;;-143.84;31.49;44835.81;5090512;28;20949;-75
2022/06/29 06:05:46;;;;;;;4.33;2.00;;;;;;;-143.84;32.03;44811.06;5090540;28;20446;-75
2022/06/29 06:08:15;;;;;;;9.10;2.43;;;;;;;-143.84;30.64;44812.97;5090529;28;20515;-75
2022/06/29 06:10:42;;;;;;;7.43;2.33;;;;;;;-143.84;31.99;44828.19;5090338;28;21321;-75
2022/06/29 06:13:11;;;;;;;12.13;2.37;;;;;;;-143.84;31.54;44826.28;5091283;28;20443;-78
2022/06/29 06:15:38;;;;;;;6.53;1.83;;;;;;;-143.84;31.52;44803.44;5092233;28;20513;-78
2022/06/29 06:18:06;;;;;;;8.83;2.27;;;;;;;-143.84;31.27;44788.22;5091900;28;20470;-78
2022/06/29 06:20:33;;;;;;;7.27;2.57;;;;;;;-143.84;31.48;44805.34;5092296;28;20439;-78
2022/06/29 06:23:01;;;;;;;4.50;1.83;;;;;;;-143.84;30.40;44812.97;5092138;28;20494;-79
2022/06/29 06:25:28;;;;;;;5.73;1.80;;;;;;;-143.84;30.90;44818.66;5091672;28;20443;-79
2022/06/29 06:27:55;;;;;;;12.47;2.53;;;;;;;-143.84;30.81;44790.13;5088250;28;20431;-79
2022/06/29 06:30:24;;;;;;;7.60;2.30;;;;;;;-143.84;31.47;44776.78;5088179;28;21036;-79
2022/06/29 06:32:51;;;;;;;4.13;2.10;;;;;;;-143.84;30.87;44771.06;5089286;28;20444;-79
2022/06/29 06:35:19;;;;;;;9.30;2.40;;;;;;;-143.84;30.64;44771.06;5090414;28;20444;-78
2022/06/29 06:37:46;;;;;;;3.57;2.30;;;;;;;-143.84;30.04;44772.97;5091061;28;20497;-79
2022/06/29 06:42:59;;;;;;;5.50;2.17;;;;;;;-143.84;30.06;44761.56;5092210;28;20419;-79
2022/06/29 06:45:28;;;;;;;4.17;1.80;;;;;;;-143.84;30.23;44719.66;5092405;28;20489;-79
2022/06/29 06:47:56;;;;;;;9.33;2.23;;;;;;;-143.84;30.38;44782.50;5091903;28;20494;-79
2022/06/29 06:50:23;;;;;;;3.97;1.80;;;;;;;-143.84;29.96;44738.69;5091813;28;20532;-78
2022/06/29 06:52:50;;;;;;;14.83;2.93;;;;;;;-143.84;29.61;44752.03;5092294;28;20905;-79
2022/06/29 06:55:17;;;;;;;3.70;1.90;;;;;;;-143.84;30.10;44757.75;5092230;28;20847;-78
2022/06/29 06:57:45;;;;;;;4.40;2.10;;;;;;;-143.84;29.74;44740.59;5091789;28;20471;-79
2022/06/29 07:00:13;;;;;;;7.90;2.50;;;;;;;-143.84;30.21;44771.06;5092185;28;20915;-79
2022/06/29 07:02:41;;;;;;;3.37;2.13;;;;;;;-143.84;30.01;44759.66;5093768;28;20432;-79
2022/06/29 07:05:09;;;;;;;7.73;2.20;;;;;;;-143.84;30.52;44744.41;5096135;28;20917;-79
2022/06/29 07:07:37;;;;;;;6.17;2.27;;;;;;;-143.84;29.21;44752.03;5095624;28;20440;-79
2022/06/29 07:10:05;;;;;;;5.77;2.00;;;;;;;-143.84;29.83;44755.84;5095510;28;20533;-79
2022/06/29 07:12:33;;;;;;;11.73;2.50;;;;;;;-143.84;29.63;44721.56;5096164;28;20443;-79
2022/06/29 07:15:00;;;;;;;7.10;2.90;;;;;;;-143.84;31.86;44729.19;5095877;28;20436;-80
2022/06/29 07:17:27;;;;;;;8.73;4.17;;;;;;;-143.84;31.91;44778.69;5095791;28;20490;-79
2022/06/29 07:19:56;;;;;;;5.43;3.37;;;;;;;-143.84;32.89;44809.16;5095052;28;21015;-74
2022/06/29 07:22:24;;;;;;;5.53;2.60;;;;;;;-143.84;33.63;44752.03;5093377;28;20440;-74
2022/06/29 07:24:51;;;;;;;8.30;3.27;;;;;;;-143.84;33.45;44769.16;5093277;28;20454;-74
2022/06/29 07:27:18;;;;;;;8.00;3.00;;;;;;;-143.84;33.35;44809.16;5093000;28;20435;-75
2022/06/29 07:29:46;;;;;;;15.17;2.60;;;;;;;-143.84;33.66;44792.00;5093359;28;20483;-75
2022/06/29 07:32:13;;;;;;;13.23;2.73;;;;;;;-143.84;32.86;44811.06;5095171;28;20485;-78
2022/06/29 07:34:40;;;;;;;8.30;2.53;;;;;;;-143.84;32.79;44797.72;5095015;28;20440;-78
2022/06/29 07:37:10;;;;;;;5.57;3.73;;;;;;;-143.84;33.28;44824.38;5095280;28;20440;-78
2022/06/29 07:39:37;;;;;;;11.53;3.13;;;;;;;-143.84;33.49;44811.06;5095224;28;20435;-77
2022/06/29 07:42:05;;;;;;;13.40;3.10;;;;;;;-143.84;33.19;44812.97;5094885;28;20432;-75
2022/06/29 07:44:33;;;;;;;5.73;2.63;;;;;;;-143.84;33.14;44797.72;5094683;28;20439;-78
2022/06/29 07:47:00;;;;;;;12.60;4.10;;;;;;;-143.84;33.51;44826.28;5094718;28;20440;-78
2022/06/29 07:49:27;;;;;;;8.20;2.90;;;;;;;-143.84;33.17;44793.91;5094431;28;20475;-76
2022/06/29 07:51:54;;;;;;;6.07;2.90;;;;;;;-143.84;32.18;44807.25;5095047;28;20436;-77
2022/06/29 07:54:23;;;;;;;6.27;2.60;;;;;;;-143.84;31.56;44793.91;5091156;28;20444;-77
2022/06/29 07:56:50;;;;;;;11.13;3.30;;;;;;;-143.84;33.07;44832.00;5075275;28;20502;-77
2022/06/29 07:59:18;;;;;;;4.10;3.20;;;;;;;-143.84;31.98;44818.66;5083064;28;20436;-76
2022/06/29 08:01:45;;;;;;;11.53;2.77;;;;;;;-143.84;33.20;44793.91;5080531;28;20531;-76
2022/06/29 08:04:12;;;;;;;6.43;2.83;;;;;;;-143.84;32.61;44763.47;5094261;28;20450;-76
2022/06/29 08:06:39;;;;;;;6.77;2.60;;;;;;;-143.84;33.28;44750.13;5077879;28;20459;-76
2022/06/29 08:09:06;;;;;;;5.30;2.87;;;;;;;-143.84;33.01;44784.41;5093122;28;20565;-77
2022/06/29 08:11:35;;;;;;;10.80;3.03;;;;;;;-143.84;32.77;44790.13;5085391;28;21849;-76
2022/06/29 08:14:03;;;;;;;12.63;2.80;;;;;;;-143.84;31.57;44753.94;5071958;28;20463;-76
2022/06/29 08:16:30;;;;;;;9.33;3.03;;;;;;;-143.84;33.72;44795.81;5076409;28;20448;-76
2022/06/29 08:18:57;;;;;;;7.03;2.33;;;;;;;-143.84;33.32;44771.06;5082495;28;20451;-76
2022/06/29 08:21:24;;;;;;;12.23;3.37;;;;;;;-143.84;33.34;44765.34;5081009;28;20464;-76
2022/06/29 08:23:51;;;;;;;14.93;3.93;;;;;;;-143.84;32.28;44771.06;5073155;28;20448;-76
2022/06/29 08:26:18;;;;;;;4.30;2.83;;;;;;;-143.84;33.56;44776.78;5072191;28;20440;-76
2022/06/29 08:28:47;;;;;;;10.87;2.60;;;;;;;-143.84;33.74;44782.50;5075756;28;20850;-76
2022/06/29 08:31:14;;;;;;;6.60;3.43;;;;;;;-143.84;32.97;44782.50;5075662;28;20445;-76
2022/06/29 08:33:43;;;;;;;4.53;2.67;;;;;;;-143.84;30.96;44752.03;5071979;28;20985;-76
2022/06/29 08:36:10;;;;;;;4.93;2.80;;;;;;;-143.84;32.29;44774.88;5071951;28;20492;-76
2022/06/29 08:38:37;;;;;;;4.83;2.40;;;;;;;-143.84;30.21;44748.22;5071956;28;20471;-76
2022/06/29 08:41:05;;;;;;;6.57;2.87;;;;;;;-143.84;31.03;44765.34;5071615;28;20506;-76
2022/06/29 08:43:33;;;;;;;12.80;3.30;;;;;;;-143.84;31.86;44752.03;5073401;28;20499;-76
2022/06/29 08:46:01;;;;;;;11.03;3.10;;;;;;;-143.84;32.47;44788.22;5075639;28;20457;-76
2022/06/29 08:48:30;;;;;;;5.60;2.30;;;;;;;-143.84;31.57;44778.69;5072220;28;20437;-76
2022/06/29 08:50:57;;;;;;;6.70;2.87;;;;;;;-143.84;31.86;44742.50;5075349;28;21146;-76
2022/06/29 08:53:24;;;;;;;4.83;2.50;;;;;;;-143.84;32.55;44771.06;5071825;28;20440;-76
2022/06/29 08:55:55;;;;;;;8.10;2.30;;;;;;;-143.84;31.27;44753.94;5072819;28;20801;-76
2022/06/29 08:58:24;;;;;;;7.97;3.13;;;;;;;-143.84;29.79;44742.50;5075221;28;20484;-76
2022/06/29 09:00:52;;;;;;;5.60;2.93;;;;;;;-143.84;30.98;44736.81;5074159;28;20448;-76
2022/06/29 09:03:22;;;;;;;5.23;2.73;;;;;;;-143.84;31.76;44727.28;5071529;28;20449;-76
2022/06/29 09:05:51;;;;;;;6.37;3.00;;;;;;;-143.84;31.09;44755.84;5070771;28;20461;-74
2022/06/29 09:08:19;;;;;;;11.90;3.50;;;;;;;-143.84;31.89;44742.50;5072564;28;20452;-75
2022/06/29 09:10:46;;;;;;;6.50;2.77;;;;;;;-143.84;31.21;44752.03;5069890;28;20476;-75
2022/06/29 09:13:20;;;;;;;3.10;2.77;;;;;;;-143.84;31.13;44780.59;5071097;28;20448;-74
2022/06/29 09:15:47;;;;;;;3.13;2.83;;;;;;;-143.84;31.21;44782.50;5071079;28;20931;-77
2022/06/29 09:18:27;;;;;;;7.90;2.90;;;;;;;-143.84;30.94;44788.22;5072527;28;20425;-76
2022/06/29 09:20:55;;;;;;;4.67;2.83;;;;;;;-143.84;31.49;44733.00;5071304;28;20440;-76
2022/06/29 09:23:23;;;;;;;7.00;3.30;;;;;;;-143.84;31.68;44782.50;5071705;28;20441;-76
2022/06/29 09:25:50;;;;;;;3.83;3.53;;;;;;;-143.84;32.17;44752.03;5072524;28;20498;-76
2022/06/29 09:28:23;;;;;;;9.70;2.87;;;;;;;-143.84;31.91;44761.56;5071404;28;20463;-76
2022/06/29 09:30:52;;;;;;;5.67;2.60;;;;;;;-143.84;32.85;44772.97;5071066;28;20484;-76
2022/06/29 09:33:21;;;;;;;5.83;3.30;;;;;;;-143.84;32.58;44790.13;5072381;28;20445;-79
2022/06/29 09:36:06;;;;;;;9.43;2.83;;;;;;;-143.84;31.00;44757.75;5072890;28;20499;-79
2022/06/29 09:38:35;;;;;;;8.30;3.10;;;;;;;-143.84;31.85;44771.06;5076841;28;20470;-79
2022/06/29 09:41:05;;;;;;;5.83;3.00;;;;;;;-143.84;33.45;44780.59;5072067;28;20449;-80
2022/06/29 09:43:34;;;;;;;11.20;3.60;;;;;;;-143.84;32.46;44763.47;5071921;28;20433;-80
2022/06/29 09:46:02;;;;;;;9.80;4.00;;;;;;;-143.84;32.06;44748.22;5071570;28;20440;-79
2022/06/29 09:48:31;;;;;;;6.40;3.03;;;;;;;-143.84;31.52;44763.47;5072152;28;20463;-78
2022/06/29 09:51:00;;;;;;;8.00;2.70;;;;;;;-143.84;33.04;44774.88;5070420;28;20568;-78
2022/06/29 09:53:36;;;;;;;5.70;3.07;;;;;;;-143.84;32.30;44765.34;5070963;28;20786;-80
2022/06/29 09:56:05;;;;;;;6.87;3.43;;;;;;;-143.84;32.71;44755.84;5071230;28;20941;-80
2022/06/29 09:58:41;;;;;;;4.90;3.20;;;;;;;-143.84;33.04;44780.59;5070866;28;21058;-79
2022/06/29 10:03:55;;;;;;;4.60;3.47;;;;;;;-143.84;33.20;44793.91;5070766;28;20419;-79
2022/06/29 10:06:25;;;;;;;5.73;3.30;;;;;;;-143.84;32.40;44801.53;5070894;28;20476;-79
2022/06/29 10:08:53;;;;;;;7.43;3.30;;;;;;;-143.84;32.24;44795.81;5071572;28;20513;-79
2022/06/29 10:14:27;;;;;;;2.73;2.23;;;;;;;-143.84;32.83;44841.53;5071402;28;20404;-79
2022/06/29 10:17:01;;;;;;;4.40;3.00;;;;;;;-143.84;32.80;44807.25;5071322;28;20436;-79
2022/06/29 10:19:44;;;;;;;9.87;2.40;;;;;;;-143.84;32.36;44780.59;5073337;28;20506;-78
2022/06/29 10:22:13;;;;;;;5.93;2.67;;;;;;;-143.84;32.89;44799.63;5071476;28;20429;-79
2022/06/29 10:25:04;;;;;;;9.50;3.27;;;;;;;-143.84;32.02;44824.38;5071029;28;20455;-79
2022/06/29 10:27:31;;;;;;;14.10;3.10;;;;;;;-143.84;32.36;44826.28;5071124;28;21018;-80
2022/06/29 10:30:24;;;;;;;7.40;3.20;;;;;;;-143.84;32.41;44835.81;5070560;28;20530;-79
2022/06/29 10:32:52;;;;;;;10.83;3.03;;;;;;;-143.84;33.22;44839.63;5071006;28;20498;-79
2022/06/29 10:35:20;;;;;;;7.80;3.00;;;;;;;-143.84;35.36;44816.78;5070924;28;20502;-79
2022/06/29 10:37:53;;;;;;;4.83;2.50;;;;;;;-143.84;33.03;44820.56;5070452;28;20440;-79
2022/06/29 10:40:24;;;;;;;6.10;3.20;;;;;;;-143.84;32.63;44780.59;5071588;28;20441;-79
2022/06/29 10:43:09;;;;;;;5.00;2.97;;;;;;;-143.84;32.44;44795.81;5071045;28;20789;-79
2022/06/29 10:45:46;;;;;;;12.43;3.20;;;;;;;-143.84;32.58;44795.81;5070788;28;20448;-79
2022/06/29 10:48:20;;;;;;;9.97;2.90;;;;;;;-143.84;32.70;44774.88;5071371;28;20425;-79
2022/06/29 10:50:47;;;;;;;8.10;3.20;;;;;;;-143.84;32.11;44792.00;5068606;28;20555;-79
2022/06/29 10:53:18;;;;;;;8.23;2.30;;;;;;;-143.84;32.77;44811.06;5067979;28;20811;-79
2022/06/29 10:55:47;;;;;;;7.83;2.40;;;;;;;-143.84;32.52;44792.00;5069354;28;20491;-79
2022/06/29 10:58:14;;;;;;;6.90;2.40;;;;;;;-143.84;32.80;44807.25;5069752;28;20469;-77
2022/06/29 11:00:43;;;;;;;13.93;3.07;;;;;;;-143.84;32.26;44812.97;5069887;28;20444;-78
2022/06/29 11:03:16;;;;;;;10.47;2.93;;;;;;;-143.84;33.05;44792.00;5071461;28;20840;-79
2022/06/29 11:14:04;;;;;;;4.90;3.10;;;;;;;-143.84;31.48;44761.56;5070816;28;20420;-79
2022/06/29 11:16:34;;;;;;;9.27;2.70;;;;;;;-143.84;31.90;44811.06;5070820;28;20946;-79
2022/06/29 11:19:01;;;;;;;12.50;2.80;;;;;;;-143.84;30.70;44772.97;5070708;28;20432;-79
2022/06/29 11:21:32;;;;;;;5.87;2.53;;;;;;;-143.84;31.68;44807.25;5070400;28;21020;-79
2022/06/29 11:24:06;;;;;;;4.20;2.30;;;;;;;-143.84;31.04;44790.13;5070535;28;20439;-79
2022/06/29 11:26:35;;;;;;;8.53;2.97;;;;;;;-143.84;30.83;44805.34;5070404;28;20443;-79
2022/06/29 11:29:03;;;;;;;3.10;2.30;;;;;;;-143.84;31.21;44790.13;5070483;28;20805;-79
2022/06/29 11:31:30;;;;;;;9.30;2.90;;;;;;;-143.84;31.97;44805.34;5070629;28;20465;-79
2022/06/29 11:33:58;;;;;;;4.30;2.53;;;;;;;-143.84;31.18;44820.56;5071390;28;20433;-79
2022/06/29 11:36:28;;;;;;;13.50;2.90;;;;;;;-143.84;30.87;44797.72;5070568;28;20437;-77
2022/06/29 11:38:57;;;;;;;6.10;2.60;;;;;;;-143.84;30.92;44793.91;5070616;28;20490;-80
2022/06/29 11:43:03;;;;;;;11.47;2.70;;;;;;;-143.84;31.78;44811.06;5070811;28;20444;-80